sensor_id;sensor_type;location;lat;lon;timestamp;temperature;humidity
26408;DHT22;14583;43.604;1.364;2023-03-19T00:01:52;12.50;99.90
26408;DHT22;14583;43.604;1.364;2023-03-19T00:04:18;12.30;99.90
26408;DHT22;14583;43.604;1.364;2023-03-19T00:06:43;12.40;99.90
26408;DHT22;14583;43.604;1.364;2023-03-19T00:09:10;12.50;99.90
26408;DHT22;14583;43.604;1.364;2023-03-19T00:11:36;12.60;99.90
26408;DHT22;14583;43.604;1.364;2023-03-19T00:14:01;12.70;99.90
26408;DHT22;14583;43.604;1.364;2023-03-19T00:16:27;12.80;99.90
26408;DHT22;14583;43.604;1.364;2023-03-19T00:18:53;12.90;99.90
26408;DHT22;14583;43.604;1.364;2023-03-19T00:21:19;12.90;99.90
26408;DHT22;14583;43.604;1.364;2023-03-19T00:23:45;13.00;99.90
26408;DHT22;14583;43.604;1.364;2023-03-19T00:26:10;12.90;99.90
26408;DHT22;14583;43.604;1.364;2023-03-19T00:28:36;12.80;99.90
26408;DHT22;14583;43.604;1.364;2023-03-19T00:31:13;12.70;99.90
26408;DHT22;14583;43.604;1.364;2023-03-19T00:33:40;12.80;99.90
26408;DHT22;14583;43.604;1.364;2023-03-19T00:36:06;12.70;99.90
26408;DHT22;14583;43.604;1.364;2023-03-19T00:38:32;12.50;99.90
26408;DHT22;14583;43.604;1.364;2023-03-19T00:40:59;12.60;99.90
26408;DHT22;14583;43.604;1.364;2023-03-19T00:43:24;12.70;99.90
26408;DHT22;14583;43.604;1.364;2023-03-19T00:45:51;12.50;99.90
26408;DHT22;14583;43.604;1.364;2023-03-19T00:48:17;12.50;99.90
26408;DHT22;14583;43.604;1.364;2023-03-19T00:50:43;12.70;99.90
26408;DHT22;14583;43.604;1.364;2023-03-19T00:53:08;12.80;99.90
26408;DHT22;14583;43.604;1.364;2023-03-19T00:55:34;12.70;99.90
26408;DHT22;14583;43.604;1.364;2023-03-19T00:58:00;12.80;99.90
26408;DHT22;14583;43.604;1.364;2023-03-19T01:00:26;12.70;99.90
26408;DHT22;14583;43.604;1.364;2023-03-19T01:02:52;12.80;99.90
26408;DHT22;14583;43.604;1.364;2023-03-19T01:05:19;12.70;99.90
26408;DHT22;14583;43.604;1.364;2023-03-19T01:07:45;12.70;99.90
26408;DHT22;14583;43.604;1.364;2023-03-19T01:10:11;12.40;99.90
26408;DHT22;14583;43.604;1.364;2023-03-19T01:12:37;12.40;99.90
26408;DHT22;14583;43.604;1.364;2023-03-19T01:15:04;12.50;99.90
26408;DHT22;14583;43.604;1.364;2023-03-19T01:17:31;12.70;99.90
26408;DHT22;14583;43.604;1.364;2023-03-19T01:19:57;12.70;99.90
26408;DHT22;14583;43.604;1.364;2023-03-19T01:22:22;12.60;99.90
26408;DHT22;14583;43.604;1.364;2023-03-19T01:24:48;12.50;99.90
26408;DHT22;14583;43.604;1.364;2023-03-19T01:27:13;12.40;99.90
26408;DHT22;14583;43.604;1.364;2023-03-19T01:29:39;12.30;99.90
26408;DHT22;14583;43.604;1.364;2023-03-19T01:32:05;12.30;99.90
26408;DHT22;14583;43.604;1.364;2023-03-19T01:34:31;12.10;99.90
26408;DHT22;14583;43.604;1.364;2023-03-19T01:36:57;12.20;99.90
26408;DHT22;14583;43.604;1.364;2023-03-19T01:39:23;12.20;99.90
26408;DHT22;14583;43.604;1.364;2023-03-19T01:41:48;12.10;99.90
26408;DHT22;14583;43.604;1.364;2023-03-19T01:44:34;12.10;99.90
26408;DHT22;14583;43.604;1.364;2023-03-19T01:47:04;12.20;99.90
26408;DHT22;14583;43.604;1.364;2023-03-19T01:49:31;12.10;99.90
26408;DHT22;14583;43.604;1.364;2023-03-19T01:51:59;12.10;99.90
26408;DHT22;14583;43.604;1.364;2023-03-19T01:54:27;12.20;99.90
26408;DHT22;14583;43.604;1.364;2023-03-19T01:56:59;12.30;99.90
26408;DHT22;14583;43.604;1.364;2023-03-19T01:59:32;12.30;99.90
26408;DHT22;14583;43.604;1.364;2023-03-19T02:02:34;12.30;99.90
26408;DHT22;14583;43.604;1.364;2023-03-19T02:05:10;12.30;99.90
26408;DHT22;14583;43.604;1.364;2023-03-19T02:07:37;12.30;99.90
26408;DHT22;14583;43.604;1.364;2023-03-19T02:10:06;12.20;99.90
26408;DHT22;14583;43.604;1.364;2023-03-19T02:12:33;12.20;99.90
26408;DHT22;14583;43.604;1.364;2023-03-19T02:14:59;12.20;99.90
26408;DHT22;14583;43.604;1.364;2023-03-19T02:17:26;12.30;99.90
26408;DHT22;14583;43.604;1.364;2023-03-19T02:22:21;12.10;99.90
26408;DHT22;14583;43.604;1.364;2023-03-19T02:24:58;12.20;99.90
26408;DHT22;14583;43.604;1.364;2023-03-19T02:27:26;12.20;99.90
26408;DHT22;14583;43.604;1.364;2023-03-19T02:29:52;12.20;99.90
26408;DHT22;14583;43.604;1.364;2023-03-19T02:32:18;12.30;99.90
26408;DHT22;14583;43.604;1.364;2023-03-19T02:34:44;12.30;99.90
26408;DHT22;14583;43.604;1.364;2023-03-19T02:37:15;12.00;99.90
26408;DHT22;14583;43.604;1.364;2023-03-19T02:39:54;12.00;99.90
26408;DHT22;14583;43.604;1.364;2023-03-19T02:42:23;12.10;99.90
26408;DHT22;14583;43.604;1.364;2023-03-19T02:44:50;12.10;99.90
26408;DHT22;14583;43.604;1.364;2023-03-19T02:47:16;12.00;99.90
26408;DHT22;14583;43.604;1.364;2023-03-19T02:49:42;12.10;99.90
26408;DHT22;14583;43.604;1.364;2023-03-19T02:52:08;12.10;99.90
26408;DHT22;14583;43.604;1.364;2023-03-19T02:54:33;12.10;99.90
26408;DHT22;14583;43.604;1.364;2023-03-19T02:56:59;12.20;99.90
26408;DHT22;14583;43.604;1.364;2023-03-19T02:59:25;12.10;99.90
26408;DHT22;14583;43.604;1.364;2023-03-19T03:01:51;11.90;99.90
26408;DHT22;14583;43.604;1.364;2023-03-19T03:04:17;12.00;99.90
26408;DHT22;14583;43.604;1.364;2023-03-19T03:06:43;12.00;99.90
26408;DHT22;14583;43.604;1.364;2023-03-19T03:09:10;12.10;99.90
26408;DHT22;14583;43.604;1.364;2023-03-19T03:11:37;12.10;99.90
26408;DHT22;14583;43.604;1.364;2023-03-19T03:14:05;12.10;99.90
26408;DHT22;14583;43.604;1.364;2023-03-19T03:16:32;12.10;99.90
26408;DHT22;14583;43.604;1.364;2023-03-19T03:18:58;12.20;99.90
26408;DHT22;14583;43.604;1.364;2023-03-19T03:21:24;12.30;99.90
26408;DHT22;14583;43.604;1.364;2023-03-19T03:23:50;12.20;99.90
26408;DHT22;14583;43.604;1.364;2023-03-19T03:26:16;12.20;99.90
26408;DHT22;14583;43.604;1.364;2023-03-19T03:28:41;12.20;99.90
26408;DHT22;14583;43.604;1.364;2023-03-19T03:31:08;12.20;99.90
26408;DHT22;14583;43.604;1.364;2023-03-19T03:33:34;12.20;99.90
26408;DHT22;14583;43.604;1.364;2023-03-19T03:36:00;12.20;99.90
26408;DHT22;14583;43.604;1.364;2023-03-19T03:38:26;12.20;99.90
26408;DHT22;14583;43.604;1.364;2023-03-19T03:40:52;12.30;99.90
26408;DHT22;14583;43.604;1.364;2023-03-19T03:43:19;12.20;99.90
26408;DHT22;14583;43.604;1.364;2023-03-19T03:45:49;12.20;99.90
26408;DHT22;14583;43.604;1.364;2023-03-19T03:48:14;12.10;99.90
26408;DHT22;14583;43.604;1.364;2023-03-19T03:50:40;12.20;99.90
26408;DHT22;14583;43.604;1.364;2023-03-19T03:53:06;12.10;99.90
26408;DHT22;14583;43.604;1.364;2023-03-19T03:55:33;12.20;99.90
26408;DHT22;14583;43.604;1.364;2023-03-19T03:57:58;12.20;99.90
26408;DHT22;14583;43.604;1.364;2023-03-19T04:00:24;12.30;99.90
26408;DHT22;14583;43.604;1.364;2023-03-19T04:02:51;12.10;99.90
26408;DHT22;14583;43.604;1.364;2023-03-19T04:05:17;12.10;99.90
26408;DHT22;14583;43.604;1.364;2023-03-19T04:07:43;12.10;99.90
26408;DHT22;14583;43.604;1.364;2023-03-19T04:10:10;11.90;99.90
26408;DHT22;14583;43.604;1.364;2023-03-19T04:12:37;11.90;99.90
26408;DHT22;14583;43.604;1.364;2023-03-19T04:15:08;11.80;99.90
26408;DHT22;14583;43.604;1.364;2023-03-19T04:17:35;11.90;99.90
26408;DHT22;14583;43.604;1.364;2023-03-19T04:20:02;11.90;99.90
26408;DHT22;14583;43.604;1.364;2023-03-19T04:22:29;11.80;99.90
26408;DHT22;14583;43.604;1.364;2023-03-19T04:24:55;11.90;99.90
26408;DHT22;14583;43.604;1.364;2023-03-19T04:27:21;11.90;99.90
26408;DHT22;14583;43.604;1.364;2023-03-19T04:29:46;11.90;99.90
26408;DHT22;14583;43.604;1.364;2023-03-19T04:32:12;11.90;99.90
26408;DHT22;14583;43.604;1.364;2023-03-19T04:34:38;11.80;99.90
26408;DHT22;14583;43.604;1.364;2023-03-19T04:37:03;11.90;99.90
26408;DHT22;14583;43.604;1.364;2023-03-19T04:39:29;11.80;99.90
26408;DHT22;14583;43.604;1.364;2023-03-19T04:41:55;11.90;99.90
26408;DHT22;14583;43.604;1.364;2023-03-19T04:44:21;11.90;99.90
26408;DHT22;14583;43.604;1.364;2023-03-19T04:46:47;11.90;99.90
26408;DHT22;14583;43.604;1.364;2023-03-19T04:49:12;11.90;99.90
26408;DHT22;14583;43.604;1.364;2023-03-19T04:51:38;11.80;99.90
26408;DHT22;14583;43.604;1.364;2023-03-19T04:54:04;11.80;99.90
26408;DHT22;14583;43.604;1.364;2023-03-19T04:56:30;11.80;99.90
26408;DHT22;14583;43.604;1.364;2023-03-19T04:58:56;11.80;99.90
26408;DHT22;14583;43.604;1.364;2023-03-19T05:01:22;11.90;99.90
26408;DHT22;14583;43.604;1.364;2023-03-19T05:03:48;12.00;99.90
26408;DHT22;14583;43.604;1.364;2023-03-19T05:06:14;12.00;99.90
26408;DHT22;14583;43.604;1.364;2023-03-19T05:08:41;12.00;99.90
26408;DHT22;14583;43.604;1.364;2023-03-19T05:11:07;12.00;99.90
26408;DHT22;14583;43.604;1.364;2023-03-19T05:13:33;12.00;99.90
26408;DHT22;14583;43.604;1.364;2023-03-19T05:15:58;12.00;99.90
26408;DHT22;14583;43.604;1.364;2023-03-19T05:18:24;11.90;99.90
26408;DHT22;14583;43.604;1.364;2023-03-19T05:20:50;11.90;99.90
26408;DHT22;14583;43.604;1.364;2023-03-19T05:23:16;11.90;99.90
26408;DHT22;14583;43.604;1.364;2023-03-19T05:25:42;11.90;99.90
26408;DHT22;14583;43.604;1.364;2023-03-19T05:28:08;11.80;99.90
26408;DHT22;14583;43.604;1.364;2023-03-19T05:30:34;11.90;99.90
26408;DHT22;14583;43.604;1.364;2023-03-19T05:33:00;11.80;99.90
26408;DHT22;14583;43.604;1.364;2023-03-19T05:35:27;11.90;99.90
26408;DHT22;14583;43.604;1.364;2023-03-19T05:37:54;11.90;99.90
26408;DHT22;14583;43.604;1.364;2023-03-19T05:40:20;11.90;99.90
26408;DHT22;14583;43.604;1.364;2023-03-19T05:42:47;11.90;99.90
26408;DHT22;14583;43.604;1.364;2023-03-19T05:45:13;11.90;99.90
26408;DHT22;14583;43.604;1.364;2023-03-19T05:47:39;11.80;99.90
26408;DHT22;14583;43.604;1.364;2023-03-19T05:50:06;11.80;99.90
26408;DHT22;14583;43.604;1.364;2023-03-19T05:52:32;11.90;99.90
26408;DHT22;14583;43.604;1.364;2023-03-19T05:54:58;11.80;99.90
26408;DHT22;14583;43.604;1.364;2023-03-19T05:57:23;11.70;99.90
26408;DHT22;14583;43.604;1.364;2023-03-19T05:59:49;11.80;99.90
26408;DHT22;14583;43.604;1.364;2023-03-19T06:02:15;11.80;99.90
26408;DHT22;14583;43.604;1.364;2023-03-19T06:04:41;11.70;99.90
26408;DHT22;14583;43.604;1.364;2023-03-19T06:07:06;11.80;99.90
26408;DHT22;14583;43.604;1.364;2023-03-19T06:09:32;11.90;99.90
26408;DHT22;14583;43.604;1.364;2023-03-19T06:11:58;11.90;99.90
26408;DHT22;14583;43.604;1.364;2023-03-19T06:14:23;11.80;99.90
26408;DHT22;14583;43.604;1.364;2023-03-19T06:16:49;11.80;99.90
26408;DHT22;14583;43.604;1.364;2023-03-19T06:19:15;12.00;99.90
26408;DHT22;14583;43.604;1.364;2023-03-19T06:21:40;12.00;99.90
26408;DHT22;14583;43.604;1.364;2023-03-19T06:24:06;11.90;99.90
26408;DHT22;14583;43.604;1.364;2023-03-19T06:26:32;12.00;99.90
26408;DHT22;14583;43.604;1.364;2023-03-19T06:28:58;12.00;99.90
26408;DHT22;14583;43.604;1.364;2023-03-19T06:31:24;12.00;99.90
26408;DHT22;14583;43.604;1.364;2023-03-19T06:33:50;12.00;99.90
26408;DHT22;14583;43.604;1.364;2023-03-19T06:36:16;12.00;99.90
26408;DHT22;14583;43.604;1.364;2023-03-19T06:38:42;12.00;99.90
26408;DHT22;14583;43.604;1.364;2023-03-19T06:41:07;12.00;99.90
26408;DHT22;14583;43.604;1.364;2023-03-19T06:43:33;12.10;99.90
26408;DHT22;14583;43.604;1.364;2023-03-19T06:46:04;12.00;99.90
26408;DHT22;14583;43.604;1.364;2023-03-19T06:48:31;12.00;99.90
26408;DHT22;14583;43.604;1.364;2023-03-19T06:50:57;11.90;99.90
26408;DHT22;14583;43.604;1.364;2023-03-19T06:53:23;11.90;99.90
26408;DHT22;14583;43.604;1.364;2023-03-19T06:55:48;11.90;99.90
26408;DHT22;14583;43.604;1.364;2023-03-19T06:58:14;12.00;99.90
26408;DHT22;14583;43.604;1.364;2023-03-19T07:00:39;12.20;99.90
26408;DHT22;14583;43.604;1.364;2023-03-19T07:03:05;12.30;99.90
26408;DHT22;14583;43.604;1.364;2023-03-19T07:05:32;12.10;99.90
26408;DHT22;14583;43.604;1.364;2023-03-19T07:07:58;12.20;99.90
26408;DHT22;14583;43.604;1.364;2023-03-19T07:10:23;12.30;99.90
26408;DHT22;14583;43.604;1.364;2023-03-19T07:12:49;12.30;99.90
26408;DHT22;14583;43.604;1.364;2023-03-19T07:15:15;12.40;99.90
26408;DHT22;14583;43.604;1.364;2023-03-19T07:17:44;12.50;99.90
26408;DHT22;14583;43.604;1.364;2023-03-19T07:20:10;12.50;99.90
26408;DHT22;14583;43.604;1.364;2023-03-19T07:22:36;12.60;99.90
26408;DHT22;14583;43.604;1.364;2023-03-19T07:25:02;12.50;99.90
26408;DHT22;14583;43.604;1.364;2023-03-19T07:27:28;12.50;99.90
26408;DHT22;14583;43.604;1.364;2023-03-19T07:29:54;12.60;99.90
26408;DHT22;14583;43.604;1.364;2023-03-19T07:32:20;12.60;99.90
26408;DHT22;14583;43.604;1.364;2023-03-19T07:34:47;12.60;99.90
26408;DHT22;14583;43.604;1.364;2023-03-19T07:37:12;12.60;99.90
26408;DHT22;14583;43.604;1.364;2023-03-19T07:39:38;12.50;99.90
26408;DHT22;14583;43.604;1.364;2023-03-19T07:42:04;12.40;99.90
26408;DHT22;14583;43.604;1.364;2023-03-19T07:44:30;12.30;99.90
26408;DHT22;14583;43.604;1.364;2023-03-19T07:46:55;12.40;99.90
26408;DHT22;14583;43.604;1.364;2023-03-19T07:49:21;12.40;99.90
26408;DHT22;14583;43.604;1.364;2023-03-19T07:51:47;12.40;99.90
26408;DHT22;14583;43.604;1.364;2023-03-19T07:54:13;12.50;99.90
26408;DHT22;14583;43.604;1.364;2023-03-19T07:56:38;12.40;99.90
26408;DHT22;14583;43.604;1.364;2023-03-19T07:59:04;12.40;99.90
26408;DHT22;14583;43.604;1.364;2023-03-19T08:01:30;12.30;99.90
26408;DHT22;14583;43.604;1.364;2023-03-19T08:03:56;12.40;99.90
26408;DHT22;14583;43.604;1.364;2023-03-19T08:06:22;12.40;99.90
26408;DHT22;14583;43.604;1.364;2023-03-19T08:08:48;12.40;99.90
26408;DHT22;14583;43.604;1.364;2023-03-19T08:11:14;12.50;99.90
26408;DHT22;14583;43.604;1.364;2023-03-19T08:13:40;12.50;99.90
26408;DHT22;14583;43.604;1.364;2023-03-19T08:16:06;12.60;99.90
26408;DHT22;14583;43.604;1.364;2023-03-19T08:18:33;12.80;99.90
26408;DHT22;14583;43.604;1.364;2023-03-19T08:21:01;12.90;99.90
26408;DHT22;14583;43.604;1.364;2023-03-19T08:23:27;12.90;99.90
26408;DHT22;14583;43.604;1.364;2023-03-19T08:25:53;12.80;99.90
26408;DHT22;14583;43.604;1.364;2023-03-19T08:28:20;12.80;99.90
26408;DHT22;14583;43.604;1.364;2023-03-19T08:30:46;12.90;99.90
26408;DHT22;14583;43.604;1.364;2023-03-19T08:33:11;12.90;99.90
26408;DHT22;14583;43.604;1.364;2023-03-19T08:35:37;12.90;99.90
26408;DHT22;14583;43.604;1.364;2023-03-19T08:38:02;12.80;99.90
26408;DHT22;14583;43.604;1.364;2023-03-19T08:40:28;12.90;99.90
26408;DHT22;14583;43.604;1.364;2023-03-19T08:42:54;13.00;99.90
26408;DHT22;14583;43.604;1.364;2023-03-19T08:45:21;13.00;99.90
26408;DHT22;14583;43.604;1.364;2023-03-19T08:47:47;13.20;99.90
26408;DHT22;14583;43.604;1.364;2023-03-19T08:50:14;13.20;99.90
26408;DHT22;14583;43.604;1.364;2023-03-19T08:52:40;13.20;99.90
26408;DHT22;14583;43.604;1.364;2023-03-19T08:55:06;13.20;99.90
26408;DHT22;14583;43.604;1.364;2023-03-19T08:57:33;13.00;99.90
26408;DHT22;14583;43.604;1.364;2023-03-19T08:59:59;13.00;99.90
26408;DHT22;14583;43.604;1.364;2023-03-19T09:02:24;13.20;99.90
26408;DHT22;14583;43.604;1.364;2023-03-19T09:04:50;13.30;99.90
26408;DHT22;14583;43.604;1.364;2023-03-19T09:07:16;13.30;99.90
26408;DHT22;14583;43.604;1.364;2023-03-19T09:09:43;13.40;99.90
26408;DHT22;14583;43.604;1.364;2023-03-19T09:12:11;13.50;99.90
26408;DHT22;14583;43.604;1.364;2023-03-19T09:14:37;13.60;99.90
26408;DHT22;14583;43.604;1.364;2023-03-19T09:17:04;13.60;99.90
26408;DHT22;14583;43.604;1.364;2023-03-19T09:19:29;13.50;99.90
26408;DHT22;14583;43.604;1.364;2023-03-19T09:21:55;13.50;99.90
26408;DHT22;14583;43.604;1.364;2023-03-19T09:24:21;13.40;99.90
26408;DHT22;14583;43.604;1.364;2023-03-19T09:26:47;13.40;99.90
26408;DHT22;14583;43.604;1.364;2023-03-19T09:29:14;13.20;99.90
26408;DHT22;14583;43.604;1.364;2023-03-19T09:31:41;13.20;99.90
26408;DHT22;14583;43.604;1.364;2023-03-19T09:34:06;13.30;99.90
26408;DHT22;14583;43.604;1.364;2023-03-19T09:36:36;13.40;99.90
26408;DHT22;14583;43.604;1.364;2023-03-19T09:39:03;13.50;99.90
26408;DHT22;14583;43.604;1.364;2023-03-19T09:44:33;13.60;99.90
26408;DHT22;14583;43.604;1.364;2023-03-19T09:49:49;13.50;99.90
26408;DHT22;14583;43.604;1.364;2023-03-19T09:55:50;13.40;99.90
26408;DHT22;14583;43.604;1.364;2023-03-19T09:58:21;13.40;99.90
26408;DHT22;14583;43.604;1.364;2023-03-19T10:00:51;13.40;99.90
26408;DHT22;14583;43.604;1.364;2023-03-19T10:03:59;13.40;99.90
26408;DHT22;14583;43.604;1.364;2023-03-19T10:06:33;13.50;99.90
26408;DHT22;14583;43.604;1.364;2023-03-19T10:09:27;13.70;99.90
26408;DHT22;14583;43.604;1.364;2023-03-19T10:15:20;13.90;99.90
26408;DHT22;14583;43.604;1.364;2023-03-19T10:25:55;14.40;99.90
26408;DHT22;14583;43.604;1.364;2023-03-19T10:28:22;14.50;99.90
26408;DHT22;14583;43.604;1.364;2023-03-19T10:36:26;14.60;99.90
26408;DHT22;14583;43.604;1.364;2023-03-19T10:38:55;14.70;99.90
26408;DHT22;14583;43.604;1.364;2023-03-19T10:44:05;14.60;99.90
26408;DHT22;14583;43.604;1.364;2023-03-19T10:46:40;14.80;99.90
26408;DHT22;14583;43.604;1.364;2023-03-19T10:49:14;14.90;99.90
26408;DHT22;14583;43.604;1.364;2023-03-19T10:51:47;14.90;99.90
26408;DHT22;14583;43.604;1.364;2023-03-19T10:54:24;14.80;99.90
26408;DHT22;14583;43.604;1.364;2023-03-19T10:56:54;14.50;99.90
26408;DHT22;14583;43.604;1.364;2023-03-19T10:59:38;14.30;99.90
26408;DHT22;14583;43.604;1.364;2023-03-19T11:02:16;14.20;99.90
26408;DHT22;14583;43.604;1.364;2023-03-19T11:04:42;14.10;99.90
26408;DHT22;14583;43.604;1.364;2023-03-19T11:07:19;14.00;99.90
26408;DHT22;14583;43.604;1.364;2023-03-19T11:09:49;13.70;99.90
26408;DHT22;14583;43.604;1.364;2023-03-19T11:12:21;13.70;99.90
26408;DHT22;14583;43.604;1.364;2023-03-19T11:14:53;13.60;99.90
26408;DHT22;14583;43.604;1.364;2023-03-19T11:17:36;13.90;99.90
26408;DHT22;14583;43.604;1.364;2023-03-19T11:20:26;14.30;99.90
26408;DHT22;14583;43.604;1.364;2023-03-19T11:22:54;14.50;99.90
26408;DHT22;14583;43.604;1.364;2023-03-19T11:25:42;14.60;99.90
26408;DHT22;14583;43.604;1.364;2023-03-19T11:28:13;14.70;99.90
26408;DHT22;14583;43.604;1.364;2023-03-19T11:39:16;14.30;99.90
26408;DHT22;14583;43.604;1.364;2023-03-19T11:47:28;14.10;99.90
26408;DHT22;14583;43.604;1.364;2023-03-19T11:53:04;14.00;99.90
26408;DHT22;14583;43.604;1.364;2023-03-19T12:01:37;14.10;99.90
26408;DHT22;14583;43.604;1.364;2023-03-19T12:07:29;14.60;99.90
26408;DHT22;14583;43.604;1.364;2023-03-19T12:13:00;14.80;99.90
26408;DHT22;14583;43.604;1.364;2023-03-19T12:15:37;14.80;99.90
26408;DHT22;14583;43.604;1.364;2023-03-19T12:18:32;15.00;99.90
26408;DHT22;14583;43.604;1.364;2023-03-19T12:24:05;15.20;99.90
26408;DHT22;14583;43.604;1.364;2023-03-19T12:29:31;15.50;99.90
26408;DHT22;14583;43.604;1.364;2023-03-19T12:34:54;15.60;99.90
26408;DHT22;14583;43.604;1.364;2023-03-19T12:37:32;15.60;99.90
26408;DHT22;14583;43.604;1.364;2023-03-19T12:42:37;15.80;99.90
26408;DHT22;14583;43.604;1.364;2023-03-19T12:45:51;15.80;99.90
26408;DHT22;14583;43.604;1.364;2023-03-19T12:48:38;15.80;99.90
26408;DHT22;14583;43.604;1.364;2023-03-19T12:50:48;15.80;99.90
26408;DHT22;14583;43.604;1.364;2023-03-19T12:53:39;16.00;99.90
26408;DHT22;14583;43.604;1.364;2023-03-19T12:56:14;16.20;99.90
26408;DHT22;14583;43.604;1.364;2023-03-19T12:59:01;16.20;99.90
26408;DHT22;14583;43.604;1.364;2023-03-19T13:01:50;16.00;99.90
26408;DHT22;14583;43.604;1.364;2023-03-19T13:04:30;16.20;99.90
26408;DHT22;14583;43.604;1.364;2023-03-19T13:07:05;16.00;99.90
26408;DHT22;14583;43.604;1.364;2023-03-19T13:09:39;16.00;99.90
26408;DHT22;14583;43.604;1.364;2023-03-19T13:12:17;15.80;99.90
26408;DHT22;14583;43.604;1.364;2023-03-19T13:17:27;15.90;99.90
26408;DHT22;14583;43.604;1.364;2023-03-19T13:19:55;15.90;99.90
26408;DHT22;14583;43.604;1.364;2023-03-19T13:22:31;16.10;99.90
26408;DHT22;14583;43.604;1.364;2023-03-19T13:24:59;15.90;99.90
26408;DHT22;14583;43.604;1.364;2023-03-19T13:27:33;15.90;99.90
26408;DHT22;14583;43.604;1.364;2023-03-19T13:32:43;15.90;99.90
26408;DHT22;14583;43.604;1.364;2023-03-19T13:35:44;15.90;99.90
26408;DHT22;14583;43.604;1.364;2023-03-19T13:40:52;16.50;99.90
26408;DHT22;14583;43.604;1.364;2023-03-19T13:59:26;16.40;99.90
26408;DHT22;14583;43.604;1.364;2023-03-19T14:01:53;16.40;99.90
26408;DHT22;14583;43.604;1.364;2023-03-19T14:04:29;16.70;99.90
26408;DHT22;14583;43.604;1.364;2023-03-19T14:07:15;16.70;99.90
26408;DHT22;14583;43.604;1.364;2023-03-19T14:09:44;16.50;99.90
26408;DHT22;14583;43.604;1.364;2023-03-19T14:15:03;16.50;99.90
26408;DHT22;14583;43.604;1.364;2023-03-19T14:25:17;16.50;99.90
26408;DHT22;14583;43.604;1.364;2023-03-19T14:27:49;16.70;99.90
26408;DHT22;14583;43.604;1.364;2023-03-19T14:33:19;16.30;99.90
26408;DHT22;14583;43.604;1.364;2023-03-19T14:35:47;16.20;99.90
26408;DHT22;14583;43.604;1.364;2023-03-19T14:40:50;16.70;99.90
26408;DHT22;14583;43.604;1.364;2023-03-19T14:43:31;16.60;99.90
26408;DHT22;14583;43.604;1.364;2023-03-19T14:46:03;16.30;99.90
26408;DHT22;14583;43.604;1.364;2023-03-19T14:48:56;16.40;99.90
26408;DHT22;14583;43.604;1.364;2023-03-19T14:52:02;16.40;99.90
26408;DHT22;14583;43.604;1.364;2023-03-19T14:54:40;16.50;99.90
26408;DHT22;14583;43.604;1.364;2023-03-19T14:57:19;16.90;99.90
26408;DHT22;14583;43.604;1.364;2023-03-19T14:59:48;16.50;99.90
26408;DHT22;14583;43.604;1.364;2023-03-19T15:02:39;16.20;99.90
26408;DHT22;14583;43.604;1.364;2023-03-19T15:05:26;15.80;99.90
26408;DHT22;14583;43.604;1.364;2023-03-19T15:07:55;15.20;99.90
26408;DHT22;14583;43.604;1.364;2023-03-19T15:10:34;15.00;99.90
26408;DHT22;14583;43.604;1.364;2023-03-19T15:13:32;14.90;99.90
26408;DHT22;14583;43.604;1.364;2023-03-19T15:16:14;14.80;99.90
26408;DHT22;14583;43.604;1.364;2023-03-19T15:18:43;14.70;99.90
26408;DHT22;14583;43.604;1.364;2023-03-19T15:21:09;14.90;99.90
26408;DHT22;14583;43.604;1.364;2023-03-19T15:23:36;15.00;99.90
26408;DHT22;14583;43.604;1.364;2023-03-19T15:26:03;15.00;99.90
26408;DHT22;14583;43.604;1.364;2023-03-19T15:28:43;15.40;99.90
26408;DHT22;14583;43.604;1.364;2023-03-19T15:31:09;15.70;99.90
26408;DHT22;14583;43.604;1.364;2023-03-19T15:33:36;16.20;99.90
26408;DHT22;14583;43.604;1.364;2023-03-19T15:38:53;19.50;99.90
26408;DHT22;14583;43.604;1.364;2023-03-19T15:41:24;26.50;99.90
26408;DHT22;14583;43.604;1.364;2023-03-19T15:43:50;30.50;99.50
26408;DHT22;14583;43.604;1.364;2023-03-19T15:46:20;32.40;91.60
26408;DHT22;14583;43.604;1.364;2023-03-19T15:48:52;33.10;87.30
26408;DHT22;14583;43.604;1.364;2023-03-19T15:51:21;34.80;82.30
26408;DHT22;14583;43.604;1.364;2023-03-19T15:53:49;35.40;76.40
26408;DHT22;14583;43.604;1.364;2023-03-19T15:56:16;36.00;72.90
26408;DHT22;14583;43.604;1.364;2023-03-19T15:58:46;32.40;71.50
26408;DHT22;14583;43.604;1.364;2023-03-19T16:01:14;26.40;80.00
26408;DHT22;14583;43.604;1.364;2023-03-19T16:03:43;22.70;90.90
26408;DHT22;14583;43.604;1.364;2023-03-19T16:06:16;19.70;95.80
26408;DHT22;14583;43.604;1.364;2023-03-19T16:08:51;18.50;99.90
26408;DHT22;14583;43.604;1.364;2023-03-19T16:13:59;16.80;99.90
26408;DHT22;14583;43.604;1.364;2023-03-19T16:16:31;16.00;99.90
26408;DHT22;14583;43.604;1.364;2023-03-19T16:18:57;15.80;99.90
26408;DHT22;14583;43.604;1.364;2023-03-19T16:23:59;15.60;99.90
26408;DHT22;14583;43.604;1.364;2023-03-19T16:26:38;15.40;99.90
26408;DHT22;14583;43.604;1.364;2023-03-19T16:31:49;15.30;99.90
26408;DHT22;14583;43.604;1.364;2023-03-19T16:37:47;15.30;99.90
26408;DHT22;14583;43.604;1.364;2023-03-19T16:40:33;16.70;99.90
26408;DHT22;14583;43.604;1.364;2023-03-19T16:43:07;21.70;99.90
26408;DHT22;14583;43.604;1.364;2023-03-19T16:45:38;27.90;97.20
26408;DHT22;14583;43.604;1.364;2023-03-19T16:48:04;29.00;91.90
26408;DHT22;14583;43.604;1.364;2023-03-19T16:50:37;30.50;89.90
26408;DHT22;14583;43.604;1.364;2023-03-19T16:55:47;31.70;78.80
26408;DHT22;14583;43.604;1.364;2023-03-19T16:58:15;31.00;78.20
26408;DHT22;14583;43.604;1.364;2023-03-19T17:00:42;30.60;78.40
26408;DHT22;14583;43.604;1.364;2023-03-19T17:03:12;30.70;78.00
26408;DHT22;14583;43.604;1.364;2023-03-19T17:05:38;27.70;79.00
26408;DHT22;14583;43.604;1.364;2023-03-19T17:08:03;23.50;88.30
26408;DHT22;14583;43.604;1.364;2023-03-19T17:10:29;20.40;92.80
26408;DHT22;14583;43.604;1.364;2023-03-19T17:12:56;18.50;96.40
26408;DHT22;14583;43.604;1.364;2023-03-19T17:15:35;17.90;98.90
26408;DHT22;14583;43.604;1.364;2023-03-19T17:18:03;17.50;99.90
26408;DHT22;14583;43.604;1.364;2023-03-19T17:20:35;17.30;99.90
26408;DHT22;14583;43.604;1.364;2023-03-19T17:23:12;17.10;99.90
26408;DHT22;14583;43.604;1.364;2023-03-19T17:25:38;16.90;99.90
26408;DHT22;14583;43.604;1.364;2023-03-19T17:28:04;16.50;99.90
26408;DHT22;14583;43.604;1.364;2023-03-19T17:30:30;16.30;99.90
26408;DHT22;14583;43.604;1.364;2023-03-19T17:32:56;16.20;99.90
26408;DHT22;14583;43.604;1.364;2023-03-19T17:35:22;16.20;99.90
26408;DHT22;14583;43.604;1.364;2023-03-19T17:37:48;16.10;99.90
26408;DHT22;14583;43.604;1.364;2023-03-19T17:40:18;16.10;99.90
26408;DHT22;14583;43.604;1.364;2023-03-19T17:42:45;16.00;99.90
26408;DHT22;14583;43.604;1.364;2023-03-19T17:45:14;15.80;99.90
26408;DHT22;14583;43.604;1.364;2023-03-19T17:47:42;15.70;99.90
26408;DHT22;14583;43.604;1.364;2023-03-19T17:50:21;15.60;99.90
26408;DHT22;14583;43.604;1.364;2023-03-19T17:52:48;15.30;99.90